sensor_id;sensor_type;location;lat;lon;timestamp;pressure;altitude;pressure_sealevel;temperature;humidity
74613;BME280;63119;51.788;8.824;2023-07-31T00:00:57;99520.94;;;16.73;95.66
74613;BME280;63119;51.788;8.824;2023-07-31T00:03:23;99519.47;;;16.79;94.46
74613;BME280;63119;51.788;8.824;2023-07-31T00:05:48;99518.06;;;16.67;95.78
74613;BME280;63119;51.788;8.824;2023-07-31T00:08:13;99519.56;;;16.69;95.53
74613;BME280;63119;51.788;8.824;2023-07-31T00:10:39;99507.53;;;16.65;95.94
74613;BME280;63119;51.788;8.824;2023-07-31T00:13:04;99510.22;;;16.65;96.91
74613;BME280;63119;51.788;8.824;2023-07-31T00:15:29;99505.31;;;16.61;96.96
74613;BME280;63119;51.788;8.824;2023-07-31T00:17:54;99504.63;;;16.59;96.54
74613;BME280;63119;51.788;8.824;2023-07-31T00:20:21;99510.97;;;16.58;97.74
74613;BME280;63119;51.788;8.824;2023-07-31T00:22:46;99498.13;;;16.61;97.08
74613;BME280;63119;51.788;8.824;2023-07-31T00:25:11;99496.44;;;16.60;96.50
74613;BME280;63119;51.788;8.824;2023-07-31T00:27:36;99490.94;;;16.79;95.80
74613;BME280;63119;51.788;8.824;2023-07-31T00:30:02;99482.97;;;16.62;96.84
74613;BME280;63119;51.788;8.824;2023-07-31T00:32:28;99479.25;;;16.80;96.26
74613;BME280;63119;51.788;8.824;2023-07-31T00:34:53;99478.47;;;16.88;96.04
74613;BME280;63119;51.788;8.824;2023-07-31T00:37:18;99474.28;;;16.85;95.49
74613;BME280;63119;51.788;8.824;2023-07-31T00:39:44;99492.63;;;16.80;95.33
74613;BME280;63119;51.788;8.824;2023-07-31T00:42:09;99478.03;;;16.75;96.89
74613;BME280;63119;51.788;8.824;2023-07-31T00:44:34;99465.91;;;16.80;96.32
74613;BME280;63119;51.788;8.824;2023-07-31T00:47:00;99474.28;;;16.85;96.41
74613;BME280;63119;51.788;8.824;2023-07-31T00:49:25;99478.78;;;16.85;97.20
74613;BME280;63119;51.788;8.824;2023-07-31T00:51:51;99475.44;;;16.83;96.71
74613;BME280;63119;51.788;8.824;2023-07-31T00:54:17;99461.13;;;16.92;95.97
74613;BME280;63119;51.788;8.824;2023-07-31T00:56:45;99455.75;;;16.84;96.44
74613;BME280;63119;51.788;8.824;2023-07-31T00:59:10;99450.91;;;16.87;96.08
74613;BME280;63119;51.788;8.824;2023-07-31T01:01:36;99450.28;;;16.93;96.33
74613;BME280;63119;51.788;8.824;2023-07-31T01:04:01;99457.84;;;16.98;95.90
74613;BME280;63119;51.788;8.824;2023-07-31T01:09:04;99440.09;;;16.97;96.00
74613;BME280;63119;51.788;8.824;2023-07-31T01:11:35;99444.28;;;17.00;96.24
74613;BME280;63119;51.788;8.824;2023-07-31T01:14:03;99446.47;;;16.96;96.39
74613;BME280;63119;51.788;8.824;2023-07-31T01:16:28;99443.81;;;16.96;96.86
74613;BME280;63119;51.788;8.824;2023-07-31T01:18:53;99442.78;;;16.97;96.55
74613;BME280;63119;51.788;8.824;2023-07-31T01:21:40;99444.81;;;17.03;95.51
74613;BME280;63119;51.788;8.824;2023-07-31T01:26:51;99447.47;;;16.95;96.16
74613;BME280;63119;51.788;8.824;2023-07-31T01:29:47;99447.47;;;16.95;95.99
74613;BME280;63119;51.788;8.824;2023-07-31T01:32:14;99440.09;;;16.97;96.36
74613;BME280;63119;51.788;8.824;2023-07-31T01:34:42;99442.78;;;16.97;96.26
74613;BME280;63119;51.788;8.824;2023-07-31T01:37:08;99432.47;;;17.02;96.40
74613;BME280;63119;51.788;8.824;2023-07-31T01:39:34;99435.34;;;16.83;97.67
74613;BME280;63119;51.788;8.824;2023-07-31T01:41:59;99434.56;;;16.90;97.37
74613;BME280;63119;51.788;8.824;2023-07-31T01:44:24;99425.72;;;16.90;97.08
74613;BME280;63119;51.788;8.824;2023-07-31T01:46:49;99435.59;;;16.98;97.36
74613;BME280;63119;51.788;8.824;2023-07-31T01:49:15;99440.09;;;16.97;97.71
74613;BME280;63119;51.788;8.824;2023-07-31T01:51:40;99431.41;;;16.95;97.15
74613;BME280;63119;51.788;8.824;2023-07-31T01:54:05;99436.34;;;16.82;96.79
74613;BME280;63119;51.788;8.824;2023-07-31T01:56:31;99429.94;;;16.75;96.76
74613;BME280;63119;51.788;8.824;2023-07-31T01:58:56;99423.25;;;16.71;96.70
74613;BME280;63119;51.788;8.824;2023-07-31T02:01:21;99440.44;;;16.68;96.33
74613;BME280;63119;51.788;8.824;2023-07-31T02:03:46;99429.22;;;16.65;96.69
74613;BME280;63119;51.788;8.824;2023-07-31T02:06:12;99418.53;;;16.65;96.40
74613;BME280;63119;51.788;8.824;2023-07-31T02:08:37;99421.03;;;16.66;95.95
74613;BME280;63119;51.788;8.824;2023-07-31T02:11:03;99420.88;;;16.68;96.34
74613;BME280;63119;51.788;8.824;2023-07-31T02:13:28;99422.41;;;16.70;95.98
74613;BME280;63119;51.788;8.824;2023-07-31T02:15:53;99416.22;;;16.70;96.87
74613;BME280;63119;51.788;8.824;2023-07-31T02:18:18;99418.53;;;16.65;96.19
74613;BME280;63119;51.788;8.824;2023-07-31T02:20:49;99413.53;;;16.70;96.16
74613;BME280;63119;51.788;8.824;2023-07-31T02:23:14;99411.53;;;16.72;95.84
74613;BME280;63119;51.788;8.824;2023-07-31T02:25:39;99412.56;;;16.71;97.02
74613;BME280;63119;51.788;8.824;2023-07-31T02:28:04;99414.84;;;16.66;96.84
74613;BME280;63119;51.788;8.824;2023-07-31T02:30:30;99405.38;;;16.71;96.17
74613;BME280;63119;51.788;8.824;2023-07-31T02:32:55;99417.28;;;16.77;95.70
74613;BME280;63119;51.788;8.824;2023-07-31T02:35:20;99411.72;;;16.70;96.60
74613;BME280;63119;51.788;8.824;2023-07-31T02:37:45;99411.13;;;16.59;96.24
74613;BME280;63119;51.788;8.824;2023-07-31T02:40:11;99406.78;;;16.58;95.38
74613;BME280;63119;51.788;8.824;2023-07-31T02:42:36;99412.13;;;16.58;95.10
74613;BME280;63119;51.788;8.824;2023-07-31T02:45:01;99414.72;;;16.50;95.20
74613;BME280;63119;51.788;8.824;2023-07-31T02:47:27;99406.00;;;16.48;94.02
74613;BME280;63119;51.788;8.824;2023-07-31T02:49:52;99409.78;;;16.37;95.13
74613;BME280;63119;51.788;8.824;2023-07-31T02:52:17;99406.63;;;16.41;95.37
74613;BME280;63119;51.788;8.824;2023-07-31T02:54:43;99395.94;;;16.41;94.84
74613;BME280;63119;51.788;8.824;2023-07-31T02:57:08;99399.63;;;16.40;95.81
74613;BME280;63119;51.788;8.824;2023-07-31T02:59:33;99410.09;;;16.34;96.70
74613;BME280;63119;51.788;8.824;2023-07-31T03:01:58;99407.56;;;16.32;97.67
74613;BME280;63119;51.788;8.824;2023-07-31T03:04:24;99405.88;;;16.31;98.10
74613;BME280;63119;51.788;8.824;2023-07-31T03:06:49;99410.63;;;16.37;97.65
74613;BME280;63119;51.788;8.824;2023-07-31T03:09:14;99409.22;;;16.33;97.94
74613;BME280;63119;51.788;8.824;2023-07-31T03:11:40;99406.72;;;16.32;98.46
74613;BME280;63119;51.788;8.824;2023-07-31T03:14:05;99403.28;;;16.39;98.34
74613;BME280;63119;51.788;8.824;2023-07-31T03:16:30;99403.28;;;16.39;98.54
74613;BME280;63119;51.788;8.824;2023-07-31T03:18:55;99399.22;;;16.35;99.71
74613;BME280;63119;51.788;8.824;2023-07-31T03:21:21;99397.63;;;16.42;99.23
74613;BME280;63119;51.788;8.824;2023-07-31T03:23:46;99389.25;;;16.37;99.18
74613;BME280;63119;51.788;8.824;2023-07-31T03:26:11;99403.81;;;16.43;99.49
74613;BME280;63119;51.788;8.824;2023-07-31T03:28:36;99399.44;;;16.42;99.52
74613;BME280;63119;51.788;8.824;2023-07-31T03:31:02;99403.31;;;16.48;99.16
74613;BME280;63119;51.788;8.824;2023-07-31T03:33:27;99416.69;;;16.48;99.33
74613;BME280;63119;51.788;8.824;2023-07-31T03:35:53;99411.13;;;16.59;98.96
74613;BME280;63119;51.788;8.824;2023-07-31T03:38:18;99414.50;;;16.43;99.33
74613;BME280;63119;51.788;8.824;2023-07-31T03:40:44;99407.38;;;16.52;98.92
74613;BME280;63119;51.788;8.824;2023-07-31T03:43:10;99407.63;;;16.58;97.45
74613;BME280;63119;51.788;8.824;2023-07-31T03:45:35;99412.13;;;16.58;97.13
74613;BME280;63119;51.788;8.824;2023-07-31T03:48:00;99404.78;;;16.60;97.01
74613;BME280;63119;51.788;8.824;2023-07-31T03:50:26;99400.47;;;16.59;97.05
74613;BME280;63119;51.788;8.824;2023-07-31T03:52:52;99399.44;;;16.60;97.03
74613;BME280;63119;51.788;8.824;2023-07-31T03:55:17;99399.22;;;16.53;97.58
74613;BME280;63119;51.788;8.824;2023-07-31T03:57:43;99400.47;;;16.59;96.66
74613;BME280;63119;51.788;8.824;2023-07-31T04:00:08;99391.75;;;16.57;96.75
74613;BME280;63119;51.788;8.824;2023-07-31T04:02:34;99398.78;;;16.58;97.02
74613;BME280;63119;51.788;8.824;2023-07-31T04:04:59;99397.78;;;16.59;96.86
74613;BME280;63119;51.788;8.824;2023-07-31T04:07:24;99395.56;;;16.54;96.26
74613;BME280;63119;51.788;8.824;2023-07-31T04:09:50;99392.75;;;16.56;96.54
74613;BME280;63119;51.788;8.824;2023-07-31T04:12:15;99398.63;;;16.59;96.06
74613;BME280;63119;51.788;8.824;2023-07-31T04:14:40;99396.31;;;16.64;95.74
74613;BME280;63119;51.788;8.824;2023-07-31T04:17:05;99399.31;;;16.61;95.08
74613;BME280;63119;51.788;8.824;2023-07-31T04:19:31;99397.09;;;16.57;95.70
74613;BME280;63119;51.788;8.824;2023-07-31T04:21:56;99395.44;;;16.56;95.32
74613;BME280;63119;51.788;8.824;2023-07-31T04:24:21;99398.25;;;16.54;96.34
74613;BME280;63119;51.788;8.824;2023-07-31T04:26:52;99399.44;;;16.60;94.96
74613;BME280;63119;51.788;8.824;2023-07-31T04:29:18;99394.81;;;16.62;94.60
74613;BME280;63119;51.788;8.824;2023-07-31T04:31:43;99389.59;;;16.60;94.90
74613;BME280;63119;51.788;8.824;2023-07-31T04:34:08;99400.03;;;16.54;94.87
74613;BME280;63119;51.788;8.824;2023-07-31T04:36:34;99394.94;;;16.60;94.77
74613;BME280;63119;51.788;8.824;2023-07-31T04:39:00;99391.22;;;16.53;95.58
74613;BME280;63119;51.788;8.824;2023-07-31T04:41:25;99398.69;;;16.50;95.20
74613;BME280;63119;51.788;8.824;2023-07-31T04:43:51;99399.53;;;16.50;94.75
74613;BME280;63119;51.788;8.824;2023-07-31T04:46:16;99395.56;;;16.54;95.14
74613;BME280;63119;51.788;8.824;2023-07-31T04:48:42;99397.38;;;16.54;94.47
74613;BME280;63119;51.788;8.824;2023-07-31T04:51:07;99397.16;;;16.65;93.84
74613;BME280;63119;51.788;8.824;2023-07-31T04:53:33;99391.16;;;17.30;91.35
74613;BME280;63119;51.788;8.824;2023-07-31T04:55:58;99391.88;;;17.40;89.76
74613;BME280;63119;51.788;8.824;2023-07-31T04:58:23;99398.22;;;17.89;86.29
74613;BME280;63119;51.788;8.824;2023-07-31T05:00:49;99394.31;;;17.60;86.73
74613;BME280;63119;51.788;8.824;2023-07-31T05:03:14;99386.53;;;17.48;87.44
74613;BME280;63119;51.788;8.824;2023-07-31T05:05:39;99387.91;;;17.53;87.50
74613;BME280;63119;51.788;8.824;2023-07-31T05:08:04;99387.97;;;17.69;86.11
74613;BME280;63119;51.788;8.824;2023-07-31T05:10:30;99393.66;;;17.66;85.41
74613;BME280;63119;51.788;8.824;2023-07-31T05:12:55;99393.47;;;17.59;85.39
74613;BME280;63119;51.788;8.824;2023-07-31T05:15:20;99398.81;;;17.25;87.42
74613;BME280;63119;51.788;8.824;2023-07-31T05:17:46;99390.09;;;17.15;88.12
74613;BME280;63119;51.788;8.824;2023-07-31T05:20:11;99391.38;;;17.03;89.02
74613;BME280;63119;51.788;8.824;2023-07-31T05:22:36;99392.00;;;16.97;89.73
74613;BME280;63119;51.788;8.824;2023-07-31T05:25:02;99400.03;;;16.97;88.47
74613;BME280;63119;51.788;8.824;2023-07-31T05:27:27;99391.00;;;16.98;89.27
74613;BME280;63119;51.788;8.824;2023-07-31T05:29:53;99402.31;;;16.84;89.24
74613;BME280;63119;51.788;8.824;2023-07-31T05:32:18;99390.66;;;16.93;89.71
74613;BME280;63119;51.788;8.824;2023-07-31T05:34:43;99394.44;;;16.82;89.70
74613;BME280;63119;51.788;8.824;2023-07-31T05:37:10;99392.28;;;16.86;90.41
74613;BME280;63119;51.788;8.824;2023-07-31T05:39:36;99406.00;;;16.91;89.38
74613;BME280;63119;51.788;8.824;2023-07-31T05:42:01;99403.31;;;16.91;89.25
74613;BME280;63119;51.788;8.824;2023-07-31T05:44:26;99397.13;;;16.90;89.89
74613;BME280;63119;51.788;8.824;2023-07-31T05:46:51;99401.34;;;16.93;88.82
74613;BME280;63119;51.788;8.824;2023-07-31T05:49:17;99402.78;;;16.87;88.57
74613;BME280;63119;51.788;8.824;2023-07-31T05:51:42;99398.19;;;16.98;88.79
74613;BME280;63119;51.788;8.824;2023-07-31T05:54:07;99396.25;;;17.08;88.70
74613;BME280;63119;51.788;8.824;2023-07-31T05:56:32;99393.69;;;16.98;88.12
74613;BME280;63119;51.788;8.824;2023-07-31T05:58:59;99388.66;;;16.95;88.61
74613;BME280;63119;51.788;8.824;2023-07-31T06:01:24;99403.75;;;17.04;88.43
74613;BME280;63119;51.788;8.824;2023-07-31T06:03:49;99398.44;;;17.12;87.63
74613;BME280;63119;51.788;8.824;2023-07-31T06:06:15;99395.75;;;17.12;87.46
74613;BME280;63119;51.788;8.824;2023-07-31T06:08:40;99400.09;;;17.13;87.75
74613;BME280;63119;51.788;8.824;2023-07-31T06:11:06;99395.75;;;17.12;87.52
74613;BME280;63119;51.788;8.824;2023-07-31T06:13:33;99395.75;;;17.12;88.57
74613;BME280;63119;51.788;8.824;2023-07-31T06:15:59;99381.19;;;17.07;87.89
74613;BME280;63119;51.788;8.824;2023-07-31T06:18:24;99388.75;;;17.11;88.20
74613;BME280;63119;51.788;8.824;2023-07-31T06:20:49;99386.75;;;17.13;88.42
74613;BME280;63119;51.788;8.824;2023-07-31T06:23:18;99385.25;;;17.19;88.72
74613;BME280;63119;51.788;8.824;2023-07-31T06:25:44;99389.63;;;17.28;87.96
74613;BME280;63119;51.788;8.824;2023-07-31T06:28:09;99384.97;;;17.30;88.42
74613;BME280;63119;51.788;8.824;2023-07-31T06:30:34;99384.09;;;17.21;88.44
74613;BME280;63119;51.788;8.824;2023-07-31T06:32:59;99387.16;;;17.26;87.63
74613;BME280;63119;51.788;8.824;2023-07-31T06:35:25;99385.47;;;17.25;88.18
74613;BME280;63119;51.788;8.824;2023-07-31T06:37:50;99381.97;;;17.33;88.32
74613;BME280;63119;51.788;8.824;2023-07-31T06:40:16;99377.78;;;17.30;87.85
74613;BME280;63119;51.788;8.824;2023-07-31T06:42:41;99371.75;;;17.28;88.35
74613;BME280;63119;51.788;8.824;2023-07-31T06:45:07;99367.47;;;17.35;88.51
74613;BME280;63119;51.788;8.824;2023-07-31T06:47:33;99369.28;;;17.35;87.81
74613;BME280;63119;51.788;8.824;2023-07-31T06:49:58;99360.25;;;17.36;86.97
74613;BME280;63119;51.788;8.824;2023-07-31T06:52:23;99366.28;;;17.38;87.58
74613;BME280;63119;51.788;8.824;2023-07-31T06:55:04;99356.78;;;17.43;87.91
74613;BME280;63119;51.788;8.824;2023-07-31T06:57:29;99357.09;;;17.32;87.96
74613;BME280;63119;51.788;8.824;2023-07-31T06:59:55;99359.44;;;17.35;88.31
74613;BME280;63119;51.788;8.824;2023-07-31T07:02:20;99354.91;;;17.36;87.98
74613;BME280;63119;51.788;8.824;2023-07-31T07:04:45;99362.78;;;17.37;88.77
74613;BME280;63119;51.788;8.824;2023-07-31T07:07:11;99352.41;;;17.34;90.29
74613;BME280;63119;51.788;8.824;2023-07-31T07:09:36;99351.22;;;17.29;91.06
74613;BME280;63119;51.788;8.824;2023-07-31T07:12:02;99350.03;;;17.23;91.38
74613;BME280;63119;51.788;8.824;2023-07-31T07:14:27;99344.63;;;17.15;91.58
74613;BME280;63119;51.788;8.824;2023-07-31T07:16:52;99342.34;;;17.20;91.60
74613;BME280;63119;51.788;8.824;2023-07-31T07:19:17;99338.31;;;17.24;91.65
74613;BME280;63119;51.788;8.824;2023-07-31T07:21:43;99335.81;;;17.23;92.67
74613;BME280;63119;51.788;8.824;2023-07-31T07:24:08;99340.31;;;17.22;92.30
74613;BME280;63119;51.788;8.824;2023-07-31T07:26:33;99342.34;;;17.28;92.99
74613;BME280;63119;51.788;8.824;2023-07-31T07:28:58;99346.34;;;17.24;93.44
74613;BME280;63119;51.788;8.824;2023-07-31T07:31:26;99343.34;;;17.27;93.37
74613;BME280;63119;51.788;8.824;2023-07-31T07:33:51;99347.19;;;17.25;93.89
74613;BME280;63119;51.788;8.824;2023-07-31T07:36:16;99334.63;;;17.17;94.36
74613;BME280;63119;51.788;8.824;2023-07-31T07:38:42;99346.50;;;17.23;94.11
74613;BME280;63119;51.788;8.824;2023-07-31T07:41:07;99338.94;;;17.10;94.58
74613;BME280;63119;51.788;8.824;2023-07-31T07:43:32;99347.09;;;17.09;95.31
74613;BME280;63119;51.788;8.824;2023-07-31T07:45:57;99348.88;;;17.26;94.60
74613;BME280;63119;51.788;8.824;2023-07-31T07:48:23;99358.75;;;17.33;95.56
74613;BME280;63119;51.788;8.824;2023-07-31T07:50:48;99369.22;;;17.61;93.36
74613;BME280;63119;51.788;8.824;2023-07-31T07:53:14;99366.47;;;17.44;93.89
74613;BME280;63119;51.788;8.824;2023-07-31T07:55:39;99364.78;;;17.43;94.57
74613;BME280;63119;51.788;8.824;2023-07-31T07:58:04;99369.97;;;17.45;95.42
74613;BME280;63119;51.788;8.824;2023-07-31T08:00:29;99368.47;;;17.42;95.03
74613;BME280;63119;51.788;8.824;2023-07-31T08:02:55;99364.09;;;17.33;95.83
74613;BME280;63119;51.788;8.824;2023-07-31T08:05:22;99368.78;;;17.39;95.90
74613;BME280;63119;51.788;8.824;2023-07-31T08:07:47;99366.97;;;17.40;95.19
74613;BME280;63119;51.788;8.824;2023-07-31T08:10:12;99366.28;;;17.38;95.98
74613;BME280;63119;51.788;8.824;2023-07-31T08:12:38;99364.59;;;17.29;96.40
74613;BME280;63119;51.788;8.824;2023-07-31T08:15:03;99359.75;;;17.32;96.53
74613;BME280;63119;51.788;8.824;2023-07-31T08:17:29;99358.59;;;17.35;96.80
74613;BME280;63119;51.788;8.824;2023-07-31T08:19:54;99353.56;;;17.32;96.83
74613;BME280;63119;51.788;8.824;2023-07-31T08:22:19;99350.53;;;17.27;97.57
74613;BME280;63119;51.788;8.824;2023-07-31T08:24:44;99353.75;;;17.38;97.21
74613;BME280;63119;51.788;8.824;2023-07-31T08:27:10;99339.50;;;17.30;98.53
74613;BME280;63119;51.788;8.824;2023-07-31T08:29:36;99340.72;;;17.43;98.65
74613;BME280;63119;51.788;8.824;2023-07-31T08:32:01;99344.59;;;17.49;97.98
74613;BME280;63119;51.788;8.824;2023-07-31T08:34:26;99341.81;;;17.67;97.87
74613;BME280;63119;51.788;8.824;2023-07-31T08:36:52;99338.13;;;17.68;97.23
74613;BME280;63119;51.788;8.824;2023-07-31T08:39:17;99332.44;;;17.71;98.13
74613;BME280;63119;51.788;8.824;2023-07-31T08:41:42;99321.56;;;17.72;96.85
74613;BME280;63119;51.788;8.824;2023-07-31T08:44:08;99319.59;;;17.74;97.19
74613;BME280;63119;51.788;8.824;2023-07-31T08:46:33;99320.91;;;17.70;96.03
74613;BME280;63119;51.788;8.824;2023-07-31T08:49:00;99314.19;;;17.66;96.67
74613;BME280;63119;51.788;8.824;2023-07-31T08:51:27;99312.03;;;17.70;96.55
74613;BME280;63119;51.788;8.824;2023-07-31T08:53:53;99311.56;;;17.74;96.46
74613;BME280;63119;51.788;8.824;2023-07-31T08:56:18;99312.06;;;17.78;96.89
74613;BME280;63119;51.788;8.824;2023-07-31T08:58:46;99321.41;;;17.82;97.05
74613;BME280;63119;51.788;8.824;2023-07-31T09:01:13;99312.72;;;17.72;95.72
74613;BME280;63119;51.788;8.824;2023-07-31T09:03:39;99306.19;;;17.74;95.62
74613;BME280;63119;51.788;8.824;2023-07-31T09:06:06;99311.03;;;17.79;95.44
74613;BME280;63119;51.788;8.824;2023-07-31T09:08:31;99309.88;;;17.81;95.72
74613;BME280;63119;51.788;8.824;2023-07-31T09:11:00;99306.03;;;17.84;93.85
74613;BME280;63119;51.788;8.824;2023-07-31T09:13:28;99308.53;;;17.93;94.76
74613;BME280;63119;51.788;8.824;2023-07-31T09:15:53;99300.03;;;17.90;95.22
74613;BME280;63119;51.788;8.824;2023-07-31T09:18:18;99296.16;;;17.84;95.81
74613;BME280;63119;51.788;8.824;2023-07-31T09:21:00;99296.66;;;17.88;95.78
74613;BME280;63119;51.788;8.824;2023-07-31T09:23:25;99296.50;;;17.89;95.44
74613;BME280;63119;51.788;8.824;2023-07-31T09:25:51;99293.97;;;17.88;94.63
74613;BME280;63119;51.788;8.824;2023-07-31T09:28:16;99293.66;;;17.99;94.90
74613;BME280;63119;51.788;8.824;2023-07-31T09:30:51;99294.31;;;18.01;94.50
74613;BME280;63119;51.788;8.824;2023-07-31T09:33:17;99283.94;;;18.06;94.55
74613;BME280;63119;51.788;8.824;2023-07-31T09:35:43;99286.09;;;18.19;94.76
74613;BME280;63119;51.788;8.824;2023-07-31T09:38:13;99286.59;;;18.22;93.95
74613;BME280;63119;51.788;8.824;2023-07-31T09:40:44;99282.75;;;18.25;93.61
74613;BME280;63119;51.788;8.824;2023-07-31T09:43:11;99281.56;;;18.27;93.43
74613;BME280;63119;51.788;8.824;2023-07-31T09:45:38;99274.91;;;18.23;92.46
74613;BME280;63119;51.788;8.824;2023-07-31T09:48:09;99276.41;;;18.10;92.62
74613;BME280;63119;51.788;8.824;2023-07-31T09:50:37;99270.84;;;18.27;91.66
74613;BME280;63119;51.788;8.824;2023-07-31T09:53:03;99261.97;;;18.35;93.08
74613;BME280;63119;51.788;8.824;2023-07-31T09:55:29;99260.97;;;18.28;91.67
74613;BME280;63119;51.788;8.824;2023-07-31T09:57:57;99263.34;;;18.23;92.17
74613;BME280;63119;51.788;8.824;2023-07-31T10:00:23;99263.16;;;18.32;91.96
74613;BME280;63119;51.788;8.824;2023-07-31T10:02:50;99259.81;;;18.30;89.31
74613;BME280;63119;51.788;8.824;2023-07-31T10:05:16;99252.91;;;18.44;90.46
74613;BME280;63119;51.788;8.824;2023-07-31T10:07:55;99260.47;;;18.40;91.73
74613;BME280;63119;51.788;8.824;2023-07-31T10:10:24;99253.75;;;18.44;91.21
74613;BME280;63119;51.788;8.824;2023-07-31T10:12:52;99253.06;;;18.42;90.09
74613;BME280;63119;51.788;8.824;2023-07-31T10:15:18;99247.38;;;18.62;89.19
74613;BME280;63119;51.788;8.824;2023-07-31T10:17:43;99244.34;;;18.65;89.10
74613;BME280;63119;51.788;8.824;2023-07-31T10:20:09;99248.34;;;18.69;87.09
74613;BME280;63119;51.788;8.824;2023-07-31T10:22:36;99241.81;;;18.71;87.44
74613;BME280;63119;51.788;8.824;2023-07-31T10:25:02;99238.47;;;18.69;87.42
74613;BME280;63119;51.788;8.824;2023-07-31T10:27:27;99236.22;;;18.81;85.99
74613;BME280;63119;51.788;8.824;2023-07-31T10:29:55;99231.22;;;18.78;85.52
74613;BME280;63119;51.788;8.824;2023-07-31T10:32:21;99237.81;;;18.98;86.92
74613;BME280;63119;51.788;8.824;2023-07-31T10:34:48;99237.19;;;18.88;85.26
74613;BME280;63119;51.788;8.824;2023-07-31T10:37:35;99236.22;;;18.81;86.21
74613;BME280;63119;51.788;8.824;2023-07-31T10:40:24;99228.56;;;18.70;85.78
74613;BME280;63119;51.788;8.824;2023-07-31T10:42:56;99235.94;;;18.68;86.97
74613;BME280;63119;51.788;8.824;2023-07-31T10:45:42;99237.94;;;18.74;87.69
74613;BME280;63119;51.788;8.824;2023-07-31T10:48:13;99239.28;;;18.70;87.02
74613;BME280;63119;51.788;8.824;2023-07-31T10:50:48;99243.69;;;18.63;88.41
74613;BME280;63119;51.788;8.824;2023-07-31T10:53:24;99234.16;;;18.60;88.34
74613;BME280;63119;51.788;8.824;2023-07-31T10:55:49;99246.56;;;18.53;89.05
74613;BME280;63119;51.788;8.824;2023-07-31T10:58:18;99241.56;;;18.42;90.17
74613;BME280;63119;51.788;8.824;2023-07-31T11:00:44;99239.69;;;18.42;90.64
74613;BME280;63119;51.788;8.824;2023-07-31T11:03:15;99233.66;;;18.40;92.11
74613;BME280;63119;51.788;8.824;2023-07-31T11:05:41;99240.72;;;18.41;92.60
74613;BME280;63119;51.788;8.824;2023-07-31T11:08:14;99238.19;;;18.48;92.47
74613;BME280;63119;51.788;8.824;2023-07-31T11:10:39;99250.13;;;18.21;93.56
74613;BME280;63119;51.788;8.824;2023-07-31T11:13:05;99244.09;;;18.19;93.96
74613;BME280;63119;51.788;8.824;2023-07-31T11:15:31;99230.91;;;18.18;94.36
74613;BME280;63119;51.788;8.824;2023-07-31T11:17:56;99235.72;;;18.22;92.73
74613;BME280;63119;51.788;8.824;2023-07-31T11:20:24;99232.66;;;18.33;92.38
74613;BME280;63119;51.788;8.824;2023-07-31T11:22:49;99227.66;;;18.30;93.34
74613;BME280;63119;51.788;8.824;2023-07-31T11:25:14;99226.66;;;18.31;91.40
74613;BME280;63119;51.788;8.824;2023-07-31T11:27:40;99228.84;;;18.36;92.43
74613;BME280;63119;51.788;8.824;2023-07-31T11:30:09;99226.47;;;18.49;92.06
74613;BME280;63119;51.788;8.824;2023-07-31T11:32:36;99228.78;;;18.60;91.62
74613;BME280;63119;51.788;8.824;2023-07-31T11:35:02;99224.38;;;18.67;92.40
74613;BME280;63119;51.788;8.824;2023-07-31T11:37:39;99227.56;;;18.71;91.85
74613;BME280;63119;51.788;8.824;2023-07-31T11:40:05;99216.44;;;18.82;91.31
74613;BME280;63119;51.788;8.824;2023-07-31T11:42:30;99213.16;;;18.72;89.56
74613;BME280;63119;51.788;8.824;2023-07-31T11:44:55;99202.19;;;18.50;88.87
74613;BME280;63119;51.788;8.824;2023-07-31T11:47:21;99217.44;;;18.42;88.85
74613;BME280;63119;51.788;8.824;2023-07-31T11:49:46;99213.06;;;18.49;89.37
74613;BME280;63119;51.788;8.824;2023-07-31T11:52:13;99213.06;;;18.49;89.07
74613;BME280;63119;51.788;8.824;2023-07-31T11:54:40;99206.72;;;18.50;89.50
74613;BME280;63119;51.788;8.824;2023-07-31T11:57:05;99195.16;;;18.49;89.53
74613;BME280;63119;51.788;8.824;2023-07-31T11:59:31;99208.22;;;18.44;89.65
74613;BME280;63119;51.788;8.824;2023-07-31T12:01:57;99204.53;;;18.37;89.18
74613;BME280;63119;51.788;8.824;2023-07-31T12:04:23;99203.69;;;18.45;87.96
74613;BME280;63119;51.788;8.824;2023-07-31T12:06:49;99206.84;;;18.48;87.81
74613;BME280;63119;51.788;8.824;2023-07-31T12:09:15;99202.81;;;18.61;87.86
74613;BME280;63119;51.788;8.824;2023-07-31T12:11:47;99202.84;;;18.52;88.19
74613;BME280;63119;51.788;8.824;2023-07-31T12:14:27;99220.91;;;18.59;88.58
74613;BME280;63119;51.788;8.824;2023-07-31T12:16:59;99210.38;;;18.57;88.18
74613;BME280;63119;51.788;8.824;2023-07-31T12:19:25;99211.38;;;18.48;86.83
74613;BME280;63119;51.788;8.824;2023-07-31T12:21:55;99206.53;;;18.51;89.30
74613;BME280;63119;51.788;8.824;2023-07-31T12:24:21;99199.69;;;18.49;88.51
74613;BME280;63119;51.788;8.824;2023-07-31T12:26:46;99207.19;;;18.45;89.07
74613;BME280;63119;51.788;8.824;2023-07-31T12:29:12;99199.81;;;18.55;89.23
74613;BME280;63119;51.788;8.824;2023-07-31T12:31:41;99195.41;;;18.71;89.35
74613;BME280;63119;51.788;8.824;2023-07-31T12:34:15;99188.59;;;18.60;88.42
74613;BME280;63119;51.788;8.824;2023-07-31T12:36:42;99188.13;;;18.87;88.49
74613;BME280;63119;51.788;8.824;2023-07-31T12:39:07;99182.88;;;18.94;87.28
74613;BME280;63119;51.788;8.824;2023-07-31T12:41:33;99187.84;;;19.05;87.16
74613;BME280;63119;51.788;8.824;2023-07-31T12:43:58;99188.19;;;19.02;88.14
74613;BME280;63119;51.788;8.824;2023-07-31T12:46:23;99193.22;;;18.97;87.21
74613;BME280;63119;51.788;8.824;2023-07-31T12:48:48;99177.03;;;18.90;87.12
74613;BME280;63119;51.788;8.824;2023-07-31T12:51:14;99183.56;;;18.88;87.63
74613;BME280;63119;51.788;8.824;2023-07-31T12:53:39;99170.56;;;18.77;87.54
74613;BME280;63119;51.788;8.824;2023-07-31T12:56:04;99182.91;;;18.86;88.31
74613;BME280;63119;51.788;8.824;2023-07-31T12:58:30;99174.88;;;18.86;87.39
74613;BME280;63119;51.788;8.824;2023-07-31T13:00:55;99184.19;;;18.67;88.32